sensor_id;sensor_type;location;lat;lon;timestamp;P1;durP1;ratioP1;P2;durP2;ratioP2
45728;SDS011;31439;53.512;10.206;2022-12-05T00:03:44;45.47;;;22.00;;
45728;SDS011;31439;53.512;10.206;2022-12-05T00:06:10;46.25;;;22.40;;
45728;SDS011;31439;53.512;10.206;2022-12-05T00:08:37;39.70;;;21.17;;
45728;SDS011;31439;53.512;10.206;2022-12-05T00:11:03;40.63;;;21.77;;
45728;SDS011;31439;53.512;10.206;2022-12-05T00:13:29;41.13;;;21.60;;
45728;SDS011;31439;53.512;10.206;2022-12-05T00:15:55;43.58;;;22.85;;
45728;SDS011;31439;53.512;10.206;2022-12-05T00:18:21;38.72;;;21.35;;
45728;SDS011;31439;53.512;10.206;2022-12-05T00:20:47;44.33;;;21.50;;
45728;SDS011;31439;53.512;10.206;2022-12-05T00:23:14;43.65;;;22.85;;
45728;SDS011;31439;53.512;10.206;2022-12-05T00:25:40;45.85;;;23.70;;
45728;SDS011;31439;53.512;10.206;2022-12-05T00:28:06;42.95;;;22.10;;
45728;SDS011;31439;53.512;10.206;2022-12-05T00:30:32;45.80;;;22.20;;
45728;SDS011;31439;53.512;10.206;2022-12-05T00:32:58;41.65;;;21.25;;
45728;SDS011;31439;53.512;10.206;2022-12-05T00:35:24;39.20;;;22.08;;
45728;SDS011;31439;53.512;10.206;2022-12-05T00:37:50;40.40;;;21.20;;
45728;SDS011;31439;53.512;10.206;2022-12-05T00:40:16;41.63;;;22.83;;
45728;SDS011;31439;53.512;10.206;2022-12-05T00:42:42;39.30;;;21.08;;
45728;SDS011;31439;53.512;10.206;2022-12-05T00:45:08;44.30;;;21.30;;
45728;SDS011;31439;53.512;10.206;2022-12-05T00:47:34;38.63;;;20.35;;
45728;SDS011;31439;53.512;10.206;2022-12-05T00:50:01;37.53;;;21.33;;
45728;SDS011;31439;53.512;10.206;2022-12-05T00:52:27;38.60;;;20.92;;
45728;SDS011;31439;53.512;10.206;2022-12-05T00:54:53;40.53;;;21.65;;
45728;SDS011;31439;53.512;10.206;2022-12-05T00:57:19;42.85;;;21.40;;
45728;SDS011;31439;53.512;10.206;2022-12-05T00:59:45;36.65;;;20.65;;
45728;SDS011;31439;53.512;10.206;2022-12-05T01:02:11;40.28;;;22.00;;
45728;SDS011;31439;53.512;10.206;2022-12-05T01:04:37;36.13;;;21.08;;
45728;SDS011;31439;53.512;10.206;2022-12-05T01:07:03;39.05;;;20.15;;
45728;SDS011;31439;53.512;10.206;2022-12-05T01:09:29;40.42;;;22.08;;
45728;SDS011;31439;53.512;10.206;2022-12-05T01:11:55;37.25;;;21.02;;
45728;SDS011;31439;53.512;10.206;2022-12-05T01:14:23;38.67;;;21.48;;
45728;SDS011;31439;53.512;10.206;2022-12-05T01:16:49;39.65;;;21.42;;
45728;SDS011;31439;53.512;10.206;2022-12-05T01:19:17;39.35;;;20.42;;
45728;SDS011;31439;53.512;10.206;2022-12-05T01:21:43;38.08;;;20.88;;
45728;SDS011;31439;53.512;10.206;2022-12-05T01:24:11;36.03;;;19.83;;
45728;SDS011;31439;53.512;10.206;2022-12-05T01:26:37;37.05;;;19.90;;
45728;SDS011;31439;53.512;10.206;2022-12-05T01:29:03;34.28;;;19.90;;
45728;SDS011;31439;53.512;10.206;2022-12-05T01:31:31;33.20;;;18.75;;
45728;SDS011;31439;53.512;10.206;2022-12-05T01:33:58;33.15;;;19.08;;
45728;SDS011;31439;53.512;10.206;2022-12-05T01:36:24;34.60;;;19.75;;
45728;SDS011;31439;53.512;10.206;2022-12-05T01:38:51;34.58;;;19.52;;
45728;SDS011;31439;53.512;10.206;2022-12-05T01:41:18;31.83;;;18.58;;
45728;SDS011;31439;53.512;10.206;2022-12-05T01:43:58;34.38;;;18.50;;
45728;SDS011;31439;53.512;10.206;2022-12-05T01:46:25;33.83;;;19.85;;
45728;SDS011;31439;53.512;10.206;2022-12-05T01:48:52;31.02;;;18.50;;
45728;SDS011;31439;53.512;10.206;2022-12-05T01:51:20;31.50;;;18.90;;
45728;SDS011;31439;53.512;10.206;2022-12-05T01:53:47;32.42;;;18.10;;
45728;SDS011;31439;53.512;10.206;2022-12-05T01:56:13;32.35;;;18.27;;
45728;SDS011;31439;53.512;10.206;2022-12-05T01:58:39;29.70;;;17.63;;
45728;SDS011;31439;53.512;10.206;2022-12-05T02:01:07;30.48;;;18.70;;
45728;SDS011;31439;53.512;10.206;2022-12-05T02:03:33;31.55;;;17.70;;
45728;SDS011;31439;53.512;10.206;2022-12-05T02:06:00;30.98;;;18.38;;
45728;SDS011;31439;53.512;10.206;2022-12-05T02:08:27;30.15;;;17.73;;
45728;SDS011;31439;53.512;10.206;2022-12-05T02:10:54;32.83;;;19.27;;
45728;SDS011;31439;53.512;10.206;2022-12-05T02:16:08;32.17;;;18.98;;
45728;SDS011;31439;53.512;10.206;2022-12-05T02:21:23;32.85;;;17.45;;
45728;SDS011;31439;53.512;10.206;2022-12-05T02:26:47;31.25;;;17.15;;
45728;SDS011;31439;53.512;10.206;2022-12-05T02:31:53;29.40;;;18.25;;
45728;SDS011;31439;53.512;10.206;2022-12-05T02:34:36;30.27;;;17.85;;
45728;SDS011;31439;53.512;10.206;2022-12-05T02:37:13;36.38;;;19.58;;
45728;SDS011;31439;53.512;10.206;2022-12-05T02:39:49;31.92;;;17.85;;
45728;SDS011;31439;53.512;10.206;2022-12-05T02:44:48;33.03;;;17.63;;
45728;SDS011;31439;53.512;10.206;2022-12-05T02:47:16;30.45;;;17.40;;
45728;SDS011;31439;53.512;10.206;2022-12-05T02:49:43;27.02;;;16.77;;
45728;SDS011;31439;53.512;10.206;2022-12-05T02:52:12;30.02;;;17.25;;
45728;SDS011;31439;53.512;10.206;2022-12-05T02:54:40;33.03;;;17.45;;
45728;SDS011;31439;53.512;10.206;2022-12-05T02:57:07;31.80;;;17.63;;
45728;SDS011;31439;53.512;10.206;2022-12-05T02:59:34;32.88;;;18.10;;
45728;SDS011;31439;53.512;10.206;2022-12-05T03:02:00;30.13;;;17.30;;
45728;SDS011;31439;53.512;10.206;2022-12-05T03:04:27;30.13;;;17.25;;
45728;SDS011;31439;53.512;10.206;2022-12-05T03:09:24;31.27;;;17.88;;
45728;SDS011;31439;53.512;10.206;2022-12-05T03:11:53;30.02;;;17.95;;
45728;SDS011;31439;53.512;10.206;2022-12-05T03:14:22;32.22;;;18.52;;
45728;SDS011;31439;53.512;10.206;2022-12-05T03:16:49;28.85;;;17.35;;
45728;SDS011;31439;53.512;10.206;2022-12-05T03:19:20;31.58;;;17.80;;
45728;SDS011;31439;53.512;10.206;2022-12-05T03:24:17;29.48;;;16.73;;
45728;SDS011;31439;53.512;10.206;2022-12-05T03:26:56;31.42;;;16.92;;
45728;SDS011;31439;53.512;10.206;2022-12-05T03:29:25;32.58;;;17.70;;
45728;SDS011;31439;53.512;10.206;2022-12-05T03:32:05;29.88;;;17.80;;
45728;SDS011;31439;53.512;10.206;2022-12-05T03:34:40;31.73;;;17.90;;
45728;SDS011;31439;53.512;10.206;2022-12-05T03:37:17;34.28;;;18.02;;
45728;SDS011;31439;53.512;10.206;2022-12-05T03:39:46;33.47;;;18.15;;
45728;SDS011;31439;53.512;10.206;2022-12-05T03:42:14;34.47;;;18.58;;
45728;SDS011;31439;53.512;10.206;2022-12-05T03:47:36;35.05;;;19.05;;
45728;SDS011;31439;53.512;10.206;2022-12-05T03:50:06;35.53;;;18.85;;
45728;SDS011;31439;53.512;10.206;2022-12-05T03:53:16;33.15;;;18.85;;
45728;SDS011;31439;53.512;10.206;2022-12-05T03:55:23;35.63;;;18.42;;
45728;SDS011;31439;53.512;10.206;2022-12-05T03:57:55;37.60;;;18.75;;
45728;SDS011;31439;53.512;10.206;2022-12-05T04:00:23;37.25;;;20.02;;
45728;SDS011;31439;53.512;10.206;2022-12-05T04:07:45;37.63;;;20.58;;
45728;SDS011;31439;53.512;10.206;2022-12-05T04:10:18;40.75;;;20.30;;
45728;SDS011;31439;53.512;10.206;2022-12-05T04:12:45;37.15;;;19.60;;
45728;SDS011;31439;53.512;10.206;2022-12-05T04:15:14;38.72;;;20.15;;
45728;SDS011;31439;53.512;10.206;2022-12-05T04:17:58;37.85;;;19.58;;
45728;SDS011;31439;53.512;10.206;2022-12-05T04:20:34;37.47;;;19.20;;
45728;SDS011;31439;53.512;10.206;2022-12-05T04:23:20;37.85;;;20.00;;
45728;SDS011;31439;53.512;10.206;2022-12-05T04:28:26;40.53;;;20.02;;
45728;SDS011;31439;53.512;10.206;2022-12-05T04:33:22;39.10;;;19.90;;
45728;SDS011;31439;53.512;10.206;2022-12-05T04:40:59;33.33;;;18.50;;
45728;SDS011;31439;53.512;10.206;2022-12-05T04:43:26;36.60;;;18.38;;
45728;SDS011;31439;53.512;10.206;2022-12-05T04:45:53;39.47;;;19.85;;
45728;SDS011;31439;53.512;10.206;2022-12-05T04:48:22;36.53;;;18.77;;
45728;SDS011;31439;53.512;10.206;2022-12-05T04:50:49;37.90;;;18.65;;
45728;SDS011;31439;53.512;10.206;2022-12-05T04:53:15;36.28;;;18.63;;
45728;SDS011;31439;53.512;10.206;2022-12-05T04:55:45;37.35;;;18.63;;
45728;SDS011;31439;53.512;10.206;2022-12-05T04:58:13;33.50;;;18.20;;
45728;SDS011;31439;53.512;10.206;2022-12-05T05:00:49;41.08;;;19.75;;
45728;SDS011;31439;53.512;10.206;2022-12-05T05:05:48;37.83;;;19.20;;
45728;SDS011;31439;53.512;10.206;2022-12-05T05:08:17;39.30;;;19.30;;
45728;SDS011;31439;53.512;10.206;2022-12-05T05:13:19;41.45;;;18.63;;
45728;SDS011;31439;53.512;10.206;2022-12-05T05:15:45;36.95;;;17.75;;
45728;SDS011;31439;53.512;10.206;2022-12-05T05:18:11;34.65;;;18.35;;
45728;SDS011;31439;53.512;10.206;2022-12-05T05:20:37;40.33;;;19.40;;
45728;SDS011;31439;53.512;10.206;2022-12-05T05:23:03;41.35;;;20.20;;
45728;SDS011;31439;53.512;10.206;2022-12-05T05:25:29;36.67;;;18.63;;
45728;SDS011;31439;53.512;10.206;2022-12-05T05:27:55;35.70;;;18.60;;
45728;SDS011;31439;53.512;10.206;2022-12-05T05:30:22;39.60;;;18.92;;
45728;SDS011;31439;53.512;10.206;2022-12-05T05:32:48;42.00;;;20.13;;
45728;SDS011;31439;53.512;10.206;2022-12-05T05:35:14;39.47;;;19.42;;
45728;SDS011;31439;53.512;10.206;2022-12-05T05:37:40;45.75;;;20.23;;
45728;SDS011;31439;53.512;10.206;2022-12-05T05:40:07;42.83;;;20.17;;
45728;SDS011;31439;53.512;10.206;2022-12-05T05:42:33;43.60;;;20.67;;
45728;SDS011;31439;53.512;10.206;2022-12-05T05:44:59;51.13;;;22.17;;
45728;SDS011;31439;53.512;10.206;2022-12-05T05:47:25;49.47;;;21.52;;
45728;SDS011;31439;53.512;10.206;2022-12-05T05:49:51;53.25;;;22.52;;
45728;SDS011;31439;53.512;10.206;2022-12-05T05:52:17;54.05;;;24.15;;
45728;SDS011;31439;53.512;10.206;2022-12-05T05:54:43;53.15;;;22.90;;
45728;SDS011;31439;53.512;10.206;2022-12-05T05:57:09;57.22;;;23.48;;
45728;SDS011;31439;53.512;10.206;2022-12-05T05:59:35;57.83;;;25.70;;
45728;SDS011;31439;53.512;10.206;2022-12-05T06:02:02;62.72;;;25.95;;
45728;SDS011;31439;53.512;10.206;2022-12-05T06:04:28;62.60;;;24.23;;
45728;SDS011;31439;53.512;10.206;2022-12-05T06:06:54;60.38;;;24.92;;
45728;SDS011;31439;53.512;10.206;2022-12-05T06:09:20;65.35;;;24.85;;
45728;SDS011;31439;53.512;10.206;2022-12-05T06:11:46;61.72;;;24.25;;
45728;SDS011;31439;53.512;10.206;2022-12-05T06:14:12;61.70;;;24.85;;
45728;SDS011;31439;53.512;10.206;2022-12-05T06:16:38;64.43;;;26.08;;
45728;SDS011;31439;53.512;10.206;2022-12-05T06:19:04;59.97;;;23.88;;
45728;SDS011;31439;53.512;10.206;2022-12-05T06:21:30;62.03;;;25.13;;
45728;SDS011;31439;53.512;10.206;2022-12-05T06:23:56;71.82;;;26.42;;
45728;SDS011;31439;53.512;10.206;2022-12-05T06:26:22;64.68;;;26.25;;
45728;SDS011;31439;53.512;10.206;2022-12-05T06:28:48;67.40;;;25.92;;
45728;SDS011;31439;53.512;10.206;2022-12-05T06:31:16;73.05;;;27.80;;
45728;SDS011;31439;53.512;10.206;2022-12-05T06:33:42;69.07;;;26.98;;
45728;SDS011;31439;53.512;10.206;2022-12-05T06:36:12;74.50;;;29.40;;
45728;SDS011;31439;53.512;10.206;2022-12-05T06:38:39;75.88;;;28.10;;
45728;SDS011;31439;53.512;10.206;2022-12-05T06:41:08;76.95;;;28.77;;
45728;SDS011;31439;53.512;10.206;2022-12-05T06:43:35;78.90;;;28.35;;
45728;SDS011;31439;53.512;10.206;2022-12-05T06:46:04;76.35;;;28.88;;
45728;SDS011;31439;53.512;10.206;2022-12-05T06:48:31;82.57;;;29.33;;
45728;SDS011;31439;53.512;10.206;2022-12-05T06:50:57;73.50;;;25.70;;
45728;SDS011;31439;53.512;10.206;2022-12-05T06:53:31;67.25;;;22.02;;
45728;SDS011;31439;53.512;10.206;2022-12-05T06:55:58;61.95;;;24.02;;
45728;SDS011;31439;53.512;10.206;2022-12-05T06:58:24;84.70;;;29.10;;
45728;SDS011;31439;53.512;10.206;2022-12-05T07:00:51;78.85;;;28.92;;
45728;SDS011;31439;53.512;10.206;2022-12-05T07:03:35;81.15;;;27.42;;
45728;SDS011;31439;53.512;10.206;2022-12-05T07:06:02;82.32;;;28.92;;
45728;SDS011;31439;53.512;10.206;2022-12-05T07:08:28;85.97;;;32.40;;
45728;SDS011;31439;53.512;10.206;2022-12-05T07:10:55;85.05;;;31.95;;
45728;SDS011;31439;53.512;10.206;2022-12-05T07:13:21;87.80;;;30.83;;
45728;SDS011;31439;53.512;10.206;2022-12-05T07:15:47;69.78;;;26.13;;
45728;SDS011;31439;53.512;10.206;2022-12-05T07:18:14;73.78;;;27.05;;
45728;SDS011;31439;53.512;10.206;2022-12-05T07:20:40;69.75;;;27.70;;
45728;SDS011;31439;53.512;10.206;2022-12-05T07:23:07;60.42;;;24.83;;
45728;SDS011;31439;53.512;10.206;2022-12-05T07:25:33;72.53;;;25.70;;
45728;SDS011;31439;53.512;10.206;2022-12-05T07:27:59;63.30;;;24.55;;
45728;SDS011;31439;53.512;10.206;2022-12-05T07:30:25;61.28;;;25.13;;
45728;SDS011;31439;53.512;10.206;2022-12-05T07:32:51;68.68;;;25.10;;
45728;SDS011;31439;53.512;10.206;2022-12-05T07:35:17;64.68;;;24.67;;
45728;SDS011;31439;53.512;10.206;2022-12-05T07:37:43;58.95;;;24.00;;
45728;SDS011;31439;53.512;10.206;2022-12-05T07:40:10;61.95;;;24.08;;
45728;SDS011;31439;53.512;10.206;2022-12-05T07:42:36;58.55;;;23.58;;
45728;SDS011;31439;53.512;10.206;2022-12-05T07:45:02;53.13;;;21.10;;
45728;SDS011;31439;53.512;10.206;2022-12-05T07:47:29;53.17;;;21.60;;
45728;SDS011;31439;53.512;10.206;2022-12-05T07:49:55;60.40;;;22.65;;
45728;SDS011;31439;53.512;10.206;2022-12-05T07:52:21;49.25;;;21.25;;
45728;SDS011;31439;53.512;10.206;2022-12-05T07:54:47;45.15;;;20.88;;
45728;SDS011;31439;53.512;10.206;2022-12-05T07:57:13;52.17;;;22.73;;
45728;SDS011;31439;53.512;10.206;2022-12-05T07:59:39;59.15;;;23.85;;
45728;SDS011;31439;53.512;10.206;2022-12-05T08:02:05;60.47;;;24.02;;
45728;SDS011;31439;53.512;10.206;2022-12-05T08:04:31;60.60;;;24.10;;
45728;SDS011;31439;53.512;10.206;2022-12-05T08:06:57;58.45;;;23.63;;
45728;SDS011;31439;53.512;10.206;2022-12-05T08:09:23;58.72;;;23.65;;
45728;SDS011;31439;53.512;10.206;2022-12-05T08:11:49;61.08;;;22.90;;
45728;SDS011;31439;53.512;10.206;2022-12-05T08:14:15;56.60;;;22.90;;
45728;SDS011;31439;53.512;10.206;2022-12-05T08:16:41;56.78;;;23.83;;
45728;SDS011;31439;53.512;10.206;2022-12-05T08:19:09;62.05;;;22.92;;
45728;SDS011;31439;53.512;10.206;2022-12-05T08:21:36;54.85;;;22.67;;
45728;SDS011;31439;53.512;10.206;2022-12-05T08:24:03;56.90;;;22.70;;
45728;SDS011;31439;53.512;10.206;2022-12-05T08:26:30;59.15;;;22.50;;
45728;SDS011;31439;53.512;10.206;2022-12-05T08:28:57;59.45;;;23.33;;
45728;SDS011;31439;53.512;10.206;2022-12-05T08:31:24;57.05;;;22.15;;
45728;SDS011;31439;53.512;10.206;2022-12-05T08:33:51;58.20;;;22.80;;
45728;SDS011;31439;53.512;10.206;2022-12-05T08:36:17;59.50;;;23.35;;
45728;SDS011;31439;53.512;10.206;2022-12-05T08:38:45;53.63;;;20.67;;
45728;SDS011;31439;53.512;10.206;2022-12-05T08:41:12;51.13;;;21.17;;
45728;SDS011;31439;53.512;10.206;2022-12-05T08:43:38;51.60;;;21.27;;
45728;SDS011;31439;53.512;10.206;2022-12-05T08:46:05;54.75;;;21.45;;
45728;SDS011;31439;53.512;10.206;2022-12-05T08:48:31;54.83;;;22.30;;
45728;SDS011;31439;53.512;10.206;2022-12-05T08:50:58;53.40;;;21.48;;
45728;SDS011;31439;53.512;10.206;2022-12-05T08:53:25;52.17;;;22.35;;
45728;SDS011;31439;53.512;10.206;2022-12-05T08:55:51;51.75;;;20.60;;
45728;SDS011;31439;53.512;10.206;2022-12-05T08:58:17;48.13;;;21.38;;
45728;SDS011;31439;53.512;10.206;2022-12-05T09:00:43;44.88;;;21.40;;
45728;SDS011;31439;53.512;10.206;2022-12-05T09:03:09;53.30;;;21.15;;
45728;SDS011;31439;53.512;10.206;2022-12-05T09:05:36;48.05;;;20.05;;
45728;SDS011;31439;53.512;10.206;2022-12-05T09:08:02;43.45;;;18.88;;
45728;SDS011;31439;53.512;10.206;2022-12-05T09:10:28;43.30;;;19.23;;
45728;SDS011;31439;53.512;10.206;2022-12-05T09:12:54;47.25;;;19.95;;
45728;SDS011;31439;53.512;10.206;2022-12-05T09:15:20;46.70;;;19.67;;
45728;SDS011;31439;53.512;10.206;2022-12-05T09:17:46;44.72;;;19.58;;
45728;SDS011;31439;53.512;10.206;2022-12-05T09:20:13;46.42;;;20.52;;
45728;SDS011;31439;53.512;10.206;2022-12-05T09:22:39;47.30;;;18.83;;
45728;SDS011;31439;53.512;10.206;2022-12-05T09:25:05;43.67;;;19.58;;
45728;SDS011;31439;53.512;10.206;2022-12-05T09:27:32;46.65;;;20.20;;
45728;SDS011;31439;53.512;10.206;2022-12-05T09:29:58;46.80;;;20.52;;
45728;SDS011;31439;53.512;10.206;2022-12-05T09:32:24;47.40;;;20.27;;
45728;SDS011;31439;53.512;10.206;2022-12-05T09:34:50;44.10;;;20.23;;
45728;SDS011;31439;53.512;10.206;2022-12-05T09:37:16;42.33;;;19.50;;
45728;SDS011;31439;53.512;10.206;2022-12-05T09:39:45;50.80;;;21.65;;
45728;SDS011;31439;53.512;10.206;2022-12-05T09:44:44;42.10;;;19.67;;
45728;SDS011;31439;53.512;10.206;2022-12-05T09:47:16;40.65;;;20.23;;
45728;SDS011;31439;53.512;10.206;2022-12-05T09:49:50;42.97;;;20.00;;
45728;SDS011;31439;53.512;10.206;2022-12-05T09:52:25;39.53;;;19.80;;
45728;SDS011;31439;53.512;10.206;2022-12-05T09:54:52;36.78;;;19.25;;
45728;SDS011;31439;53.512;10.206;2022-12-05T09:57:33;38.67;;;19.30;;
45728;SDS011;31439;53.512;10.206;2022-12-05T09:59:59;39.47;;;18.58;;
45728;SDS011;31439;53.512;10.206;2022-12-05T10:05:06;38.60;;;18.13;;
45728;SDS011;31439;53.512;10.206;2022-12-05T10:07:37;38.45;;;17.73;;
45728;SDS011;31439;53.512;10.206;2022-12-05T10:23:11;35.97;;;17.13;;
45728;SDS011;31439;53.512;10.206;2022-12-05T10:25:39;37.92;;;17.42;;
45728;SDS011;31439;53.512;10.206;2022-12-05T10:28:10;30.02;;;16.42;;
45728;SDS011;31439;53.512;10.206;2022-12-05T10:30:37;34.22;;;15.95;;
45728;SDS011;31439;53.512;10.206;2022-12-05T10:33:16;31.63;;;16.15;;
45728;SDS011;31439;53.512;10.206;2022-12-05T10:35:43;38.83;;;16.88;;
45728;SDS011;31439;53.512;10.206;2022-12-05T10:38:16;32.75;;;17.13;;
45728;SDS011;31439;53.512;10.206;2022-12-05T10:40:45;33.33;;;17.13;;
45728;SDS011;31439;53.512;10.206;2022-12-05T10:43:12;32.15;;;16.33;;
45728;SDS011;31439;53.512;10.206;2022-12-05T10:45:43;26.42;;;14.98;;
45728;SDS011;31439;53.512;10.206;2022-12-05T10:48:11;28.50;;;14.73;;
45728;SDS011;31439;53.512;10.206;2022-12-05T10:50:38;28.60;;;14.82;;
45728;SDS011;31439;53.512;10.206;2022-12-05T10:53:06;29.05;;;14.65;;
45728;SDS011;31439;53.512;10.206;2022-12-05T10:55:36;28.33;;;14.10;;
45728;SDS011;31439;53.512;10.206;2022-12-05T11:00:37;28.88;;;14.18;;
45728;SDS011;31439;53.512;10.206;2022-12-05T11:06:14;30.10;;;14.73;;
45728;SDS011;31439;53.512;10.206;2022-12-05T11:08:40;32.20;;;15.20;;
45728;SDS011;31439;53.512;10.206;2022-12-05T11:11:09;32.45;;;15.00;;
45728;SDS011;31439;53.512;10.206;2022-12-05T11:13:55;32.88;;;15.15;;
45728;SDS011;31439;53.512;10.206;2022-12-05T11:16:26;31.58;;;15.10;;
45728;SDS011;31439;53.512;10.206;2022-12-05T11:18:53;31.73;;;15.77;;
45728;SDS011;31439;53.512;10.206;2022-12-05T11:21:19;32.70;;;16.15;;
45728;SDS011;31439;53.512;10.206;2022-12-05T11:23:46;33.63;;;16.45;;
45728;SDS011;31439;53.512;10.206;2022-12-05T11:26:16;29.27;;;15.27;;
45728;SDS011;31439;53.512;10.206;2022-12-05T11:28:43;35.97;;;16.83;;
45728;SDS011;31439;53.512;10.206;2022-12-05T11:33:35;32.45;;;15.32;;
45728;SDS011;31439;53.512;10.206;2022-12-05T11:36:09;30.17;;;14.43;;
45728;SDS011;31439;53.512;10.206;2022-12-05T11:51:25;29.20;;;13.88;;
45728;SDS011;31439;53.512;10.206;2022-12-05T11:56:40;26.42;;;14.68;;
45728;SDS011;31439;53.512;10.206;2022-12-05T11:59:12;31.98;;;14.80;;
45728;SDS011;31439;53.512;10.206;2022-12-05T12:01:49;28.13;;;14.73;;
45728;SDS011;31439;53.512;10.206;2022-12-05T12:35:25;25.52;;;14.27;;
45728;SDS011;31439;53.512;10.206;2022-12-05T12:38:11;25.10;;;12.88;;
45728;SDS011;31439;53.512;10.206;2022-12-05T12:40:50;26.48;;;14.10;;
45728;SDS011;31439;53.512;10.206;2022-12-05T12:48:34;23.70;;;13.52;;
45728;SDS011;31439;53.512;10.206;2022-12-05T12:51:05;25.23;;;13.68;;
45728;SDS011;31439;53.512;10.206;2022-12-05T13:01:32;24.55;;;13.32;;
45728;SDS011;31439;53.512;10.206;2022-12-05T13:04:03;23.48;;;13.25;;
45728;SDS011;31439;53.512;10.206;2022-12-05T13:11:40;21.13;;;11.82;;
45728;SDS011;31439;53.512;10.206;2022-12-05T13:14:08;20.67;;;12.05;;
45728;SDS011;31439;53.512;10.206;2022-12-05T13:16:43;18.80;;;11.27;;
45728;SDS011;31439;53.512;10.206;2022-12-05T13:19:26;22.48;;;11.80;;
45728;SDS011;31439;53.512;10.206;2022-12-05T13:21:53;22.15;;;11.82;;
45728;SDS011;31439;53.512;10.206;2022-12-05T13:24:21;20.40;;;12.18;;
45728;SDS011;31439;53.512;10.206;2022-12-05T13:26:49;22.98;;;12.15;;
45728;SDS011;31439;53.512;10.206;2022-12-05T13:29:20;19.67;;;11.00;;
45728;SDS011;31439;53.512;10.206;2022-12-05T13:31:48;22.33;;;12.25;;
45728;SDS011;31439;53.512;10.206;2022-12-05T13:36:53;20.88;;;11.38;;
45728;SDS011;31439;53.512;10.206;2022-12-05T13:39:38;21.17;;;11.65;;
45728;SDS011;31439;53.512;10.206;2022-12-05T13:42:24;17.90;;;10.80;;
45728;SDS011;31439;53.512;10.206;2022-12-05T13:45:05;23.20;;;11.13;;
45728;SDS011;31439;53.512;10.206;2022-12-05T13:50:23;20.63;;;11.20;;
45728;SDS011;31439;53.512;10.206;2022-12-05T13:52:55;19.73;;;9.90;;
45728;SDS011;31439;53.512;10.206;2022-12-05T13:55:29;22.60;;;10.33;;
45728;SDS011;31439;53.512;10.206;2022-12-05T14:06:19;21.33;;;10.88;;
45728;SDS011;31439;53.512;10.206;2022-12-05T14:08:59;19.83;;;10.52;;
45728;SDS011;31439;53.512;10.206;2022-12-05T14:11:25;19.65;;;10.57;;
45728;SDS011;31439;53.512;10.206;2022-12-05T14:13:51;19.40;;;10.25;;
45728;SDS011;31439;53.512;10.206;2022-12-05T14:19:13;14.93;;;9.05;;
45728;SDS011;31439;53.512;10.206;2022-12-05T14:29:40;15.52;;;8.88;;
45728;SDS011;31439;53.512;10.206;2022-12-05T14:34:35;15.82;;;9.52;;
45728;SDS011;31439;53.512;10.206;2022-12-05T14:37:03;17.30;;;10.48;;
45728;SDS011;31439;53.512;10.206;2022-12-05T14:41:58;14.07;;;9.50;;
45728;SDS011;31439;53.512;10.206;2022-12-05T14:44:25;17.83;;;9.60;;
45728;SDS011;31439;53.512;10.206;2022-12-05T14:46:56;16.98;;;9.15;;
45728;SDS011;31439;53.512;10.206;2022-12-05T14:52:17;17.10;;;8.98;;
45728;SDS011;31439;53.512;10.206;2022-12-05T14:54:44;15.95;;;8.27;;
45728;SDS011;31439;53.512;10.206;2022-12-05T14:57:11;15.88;;;8.85;;
45728;SDS011;31439;53.512;10.206;2022-12-05T14:59:56;13.45;;;8.02;;
45728;SDS011;31439;53.512;10.206;2022-12-05T15:02:24;17.95;;;8.90;;
45728;SDS011;31439;53.512;10.206;2022-12-05T15:08:00;14.02;;;8.75;;
45728;SDS011;31439;53.512;10.206;2022-12-05T15:10:30;17.48;;;9.55;;
45728;SDS011;31439;53.512;10.206;2022-12-05T15:13:11;13.60;;;8.85;;
45728;SDS011;31439;53.512;10.206;2022-12-05T15:16:01;15.48;;;9.00;;
45728;SDS011;31439;53.512;10.206;2022-12-05T15:18:37;13.88;;;8.32;;
45728;SDS011;31439;53.512;10.206;2022-12-05T15:21:24;16.23;;;9.05;;
45728;SDS011;31439;53.512;10.206;2022-12-05T15:23:56;19.45;;;9.35;;
45728;SDS011;31439;53.512;10.206;2022-12-05T15:26:26;14.32;;;8.25;;
45728;SDS011;31439;53.512;10.206;2022-12-05T15:29:03;14.93;;;8.60;;
45728;SDS011;31439;53.512;10.206;2022-12-05T15:31:46;14.55;;;8.38;;
45728;SDS011;31439;53.512;10.206;2022-12-05T15:36:41;13.85;;;8.15;;
45728;SDS011;31439;53.512;10.206;2022-12-05T15:39:21;16.70;;;9.45;;
45728;SDS011;31439;53.512;10.206;2022-12-05T15:41:49;14.00;;;8.85;;
45728;SDS011;31439;53.512;10.206;2022-12-05T15:44:16;14.02;;;8.57;;
45728;SDS011;31439;53.512;10.206;2022-12-05T15:46:43;15.52;;;8.95;;
45728;SDS011;31439;53.512;10.206;2022-12-05T16:28:37;17.75;;;9.32;;
45728;SDS011;31439;53.512;10.206;2022-12-05T16:31:06;12.68;;;8.13;;
45728;SDS011;31439;53.512;10.206;2022-12-05T16:33:32;13.35;;;7.97;;
45728;SDS011;31439;53.512;10.206;2022-12-05T16:36:08;19.88;;;9.60;;
45728;SDS011;31439;53.512;10.206;2022-12-05T16:38:34;15.70;;;8.93;;
45728;SDS011;31439;53.512;10.206;2022-12-05T16:41:01;14.25;;;8.20;;
45728;SDS011;31439;53.512;10.206;2022-12-05T16:48:45;14.50;;;8.30;;
45728;SDS011;31439;53.512;10.206;2022-12-05T16:53:39;18.33;;;9.55;;
45728;SDS011;31439;53.512;10.206;2022-12-05T16:56:06;14.95;;;9.25;;
45728;SDS011;31439;53.512;10.206;2022-12-05T16:58:36;17.60;;;9.00;;
45728;SDS011;31439;53.512;10.206;2022-12-05T17:01:03;17.38;;;9.57;;
45728;SDS011;31439;53.512;10.206;2022-12-05T17:03:30;17.80;;;9.90;;
45728;SDS011;31439;53.512;10.206;2022-12-05T17:05:56;16.98;;;9.55;;
45728;SDS011;31439;53.512;10.206;2022-12-05T17:08:23;15.60;;;9.90;;
45728;SDS011;31439;53.512;10.206;2022-12-05T17:10:49;16.35;;;10.52;;
45728;SDS011;31439;53.512;10.206;2022-12-05T17:13:16;15.80;;;9.95;;
45728;SDS011;31439;53.512;10.206;2022-12-05T17:15:42;17.60;;;10.48;;
45728;SDS011;31439;53.512;10.206;2022-12-05T17:18:10;15.77;;;9.52;;
45728;SDS011;31439;53.512;10.206;2022-12-05T17:20:37;16.90;;;10.35;;
45728;SDS011;31439;53.512;10.206;2022-12-05T17:23:04;19.95;;;10.20;;
45728;SDS011;31439;53.512;10.206;2022-12-05T17:25:32;16.60;;;10.50;;
45728;SDS011;31439;53.512;10.206;2022-12-05T17:28:00;18.65;;;10.32;;
45728;SDS011;31439;53.512;10.206;2022-12-05T17:30:26;17.17;;;9.93;;
45728;SDS011;31439;53.512;10.206;2022-12-05T17:32:53;17.80;;;10.45;;
45728;SDS011;31439;53.512;10.206;2022-12-05T17:35:19;18.85;;;10.15;;
45728;SDS011;31439;53.512;10.206;2022-12-05T17:37:46;19.25;;;10.75;;
45728;SDS011;31439;53.512;10.206;2022-12-05T17:40:12;19.55;;;11.13;;
45728;SDS011;31439;53.512;10.206;2022-12-05T17:42:39;18.25;;;10.18;;
45728;SDS011;31439;53.512;10.206;2022-12-05T17:45:07;21.10;;;10.48;;
45728;SDS011;31439;53.512;10.206;2022-12-05T17:47:34;17.85;;;10.63;;
45728;SDS011;31439;53.512;10.206;2022-12-05T17:50:01;17.20;;;9.82;;
45728;SDS011;31439;53.512;10.206;2022-12-05T17:52:27;19.52;;;10.80;;
45728;SDS011;31439;53.512;10.206;2022-12-05T17:54:56;22.02;;;12.60;;
45728;SDS011;31439;53.512;10.206;2022-12-05T17:57:22;17.98;;;11.38;;
45728;SDS011;31439;53.512;10.206;2022-12-05T17:59:48;23.60;;;12.43;;